sensor_id;sensor_type;location;lat;lon;timestamp;P1;durP1;ratioP1;P2;durP2;ratioP2
63900;SDS011;50538;53.482;10.294;2023-02-15T00:07:45;19.92;;;7.45;;
63900;SDS011;50538;53.482;10.294;2023-02-15T00:17:45;16.50;;;6.65;;
63900;SDS011;50538;53.482;10.294;2023-02-15T00:27:45;16.17;;;5.43;;
63900;SDS011;50538;53.482;10.294;2023-02-15T00:37:46;11.55;;;5.63;;
63900;SDS011;50538;53.482;10.294;2023-02-15T00:47:46;15.45;;;6.88;;
63900;SDS011;50538;53.482;10.294;2023-02-15T00:57:46;15.52;;;6.18;;
63900;SDS011;50538;53.482;10.294;2023-02-15T01:07:47;16.23;;;5.93;;
63900;SDS011;50538;53.482;10.294;2023-02-15T01:17:47;14.15;;;5.28;;
63900;SDS011;50538;53.482;10.294;2023-02-15T01:27:52;13.07;;;5.03;;
63900;SDS011;50538;53.482;10.294;2023-02-15T01:37:53;13.25;;;4.95;;
63900;SDS011;50538;53.482;10.294;2023-02-15T01:47:56;12.15;;;5.00;;
63900;SDS011;50538;53.482;10.294;2023-02-15T01:58:16;12.43;;;4.88;;
63900;SDS011;50538;53.482;10.294;2023-02-15T02:08:17;15.32;;;4.63;;
63900;SDS011;50538;53.482;10.294;2023-02-15T02:49:08;10.33;;;4.50;;
63900;SDS011;50538;53.482;10.294;2023-02-15T02:59:10;9.93;;;4.30;;
63900;SDS011;50538;53.482;10.294;2023-02-15T03:09:36;11.70;;;4.85;;
63900;SDS011;50538;53.482;10.294;2023-02-15T03:19:42;7.20;;;3.53;;
63900;SDS011;50538;53.482;10.294;2023-02-15T03:29:46;10.30;;;3.78;;
63900;SDS011;50538;53.482;10.294;2023-02-15T03:39:56;9.63;;;3.97;;
63900;SDS011;50538;53.482;10.294;2023-02-15T03:50:21;7.10;;;3.00;;
63900;SDS011;50538;53.482;10.294;2023-02-15T04:00:54;7.68;;;3.30;;
63900;SDS011;50538;53.482;10.294;2023-02-15T04:11:30;7.53;;;3.50;;
63900;SDS011;50538;53.482;10.294;2023-02-15T04:21:30;8.25;;;4.00;;
63900;SDS011;50538;53.482;10.294;2023-02-15T04:31:49;6.90;;;3.17;;
63900;SDS011;50538;53.482;10.294;2023-02-15T04:41:51;9.73;;;3.80;;
63900;SDS011;50538;53.482;10.294;2023-02-15T04:51:51;7.20;;;3.77;;
63900;SDS011;50538;53.482;10.294;2023-02-15T05:01:52;10.57;;;4.32;;
63900;SDS011;50538;53.482;10.294;2023-02-15T05:11:52;7.65;;;3.13;;
63900;SDS011;50538;53.482;10.294;2023-02-15T05:21:52;8.73;;;3.05;;
63900;SDS011;50538;53.482;10.294;2023-02-15T05:31:53;7.70;;;3.22;;
63900;SDS011;50538;53.482;10.294;2023-02-15T05:41:53;5.68;;;2.75;;
63900;SDS011;50538;53.482;10.294;2023-02-15T05:51:53;7.53;;;2.53;;
63900;SDS011;50538;53.482;10.294;2023-02-15T06:01:54;9.32;;;3.42;;
63900;SDS011;50538;53.482;10.294;2023-02-15T06:11:54;8.50;;;2.60;;
63900;SDS011;50538;53.482;10.294;2023-02-15T06:21:55;6.28;;;2.60;;
63900;SDS011;50538;53.482;10.294;2023-02-15T06:31:55;6.45;;;3.03;;
63900;SDS011;50538;53.482;10.294;2023-02-15T06:41:57;7.35;;;2.58;;
63900;SDS011;50538;53.482;10.294;2023-02-15T06:51:57;4.45;;;1.88;;
63900;SDS011;50538;53.482;10.294;2023-02-15T07:01:58;7.85;;;2.15;;
63900;SDS011;50538;53.482;10.294;2023-02-15T07:11:58;6.20;;;2.85;;
63900;SDS011;50538;53.482;10.294;2023-02-15T07:22:17;5.15;;;2.10;;
63900;SDS011;50538;53.482;10.294;2023-02-15T07:32:17;5.05;;;2.60;;
63900;SDS011;50538;53.482;10.294;2023-02-15T07:42:17;7.03;;;3.30;;
63900;SDS011;50538;53.482;10.294;2023-02-15T07:52:19;5.75;;;1.95;;
63900;SDS011;50538;53.482;10.294;2023-02-15T08:02:20;9.25;;;2.67;;
63900;SDS011;50538;53.482;10.294;2023-02-15T08:12:20;5.15;;;2.33;;
63900;SDS011;50538;53.482;10.294;2023-02-15T08:22:20;5.80;;;2.45;;
63900;SDS011;50538;53.482;10.294;2023-02-15T08:32:22;4.32;;;1.88;;
63900;SDS011;50538;53.482;10.294;2023-02-15T08:42:23;7.15;;;1.73;;
63900;SDS011;50538;53.482;10.294;2023-02-15T08:52:23;8.30;;;3.28;;
63900;SDS011;50538;53.482;10.294;2023-02-15T09:02:23;3.55;;;2.17;;
63900;SDS011;50538;53.482;10.294;2023-02-15T09:12:24;7.40;;;3.22;;
63900;SDS011;50538;53.482;10.294;2023-02-15T09:22:24;6.15;;;2.35;;
63900;SDS011;50538;53.482;10.294;2023-02-15T09:32:25;5.63;;;2.05;;
63900;SDS011;50538;53.482;10.294;2023-02-15T09:42:32;6.40;;;2.08;;
63900;SDS011;50538;53.482;10.294;2023-02-15T10:02:54;7.27;;;3.00;;
63900;SDS011;50538;53.482;10.294;2023-02-15T10:13:32;8.50;;;3.00;;
63900;SDS011;50538;53.482;10.294;2023-02-15T10:34:19;10.00;;;2.30;;
63900;SDS011;50538;53.482;10.294;2023-02-15T11:15:35;11.10;;;4.20;;
63900;SDS011;50538;53.482;10.294;2023-02-15T11:25:40;11.68;;;4.78;;
63900;SDS011;50538;53.482;10.294;2023-02-15T11:35:42;10.18;;;4.22;;
63900;SDS011;50538;53.482;10.294;2023-02-15T11:45:50;11.82;;;4.57;;
63900;SDS011;50538;53.482;10.294;2023-02-15T11:55:51;11.85;;;4.68;;
63900;SDS011;50538;53.482;10.294;2023-02-15T12:05:53;12.35;;;5.38;;
63900;SDS011;50538;53.482;10.294;2023-02-15T12:15:58;11.95;;;4.43;;
63900;SDS011;50538;53.482;10.294;2023-02-15T12:26:06;9.68;;;4.75;;
63900;SDS011;50538;53.482;10.294;2023-02-15T12:36:11;11.32;;;4.65;;
63900;SDS011;50538;53.482;10.294;2023-02-15T12:46:22;13.68;;;6.00;;
63900;SDS011;50538;53.482;10.294;2023-02-15T12:56:26;12.63;;;4.93;;
63900;SDS011;50538;53.482;10.294;2023-02-15T13:06:28;13.55;;;4.82;;
63900;SDS011;50538;53.482;10.294;2023-02-15T13:16:32;16.70;;;6.20;;
63900;SDS011;50538;53.482;10.294;2023-02-15T13:26:35;12.75;;;6.10;;
63900;SDS011;50538;53.482;10.294;2023-02-15T14:07:56;14.60;;;6.07;;
63900;SDS011;50538;53.482;10.294;2023-02-15T14:18:29;15.55;;;6.53;;
63900;SDS011;50538;53.482;10.294;2023-02-15T14:28:43;13.18;;;5.85;;
63900;SDS011;50538;53.482;10.294;2023-02-15T14:49:44;16.90;;;6.68;;
63900;SDS011;50538;53.482;10.294;2023-02-15T14:59:55;12.63;;;5.82;;
63900;SDS011;50538;53.482;10.294;2023-02-15T15:10:03;11.52;;;5.25;;
63900;SDS011;50538;53.482;10.294;2023-02-15T15:50:58;13.63;;;5.22;;
63900;SDS011;50538;53.482;10.294;2023-02-15T16:01:03;24.88;;;8.98;;
63900;SDS011;50538;53.482;10.294;2023-02-15T16:11:10;10.00;;;4.05;;
63900;SDS011;50538;53.482;10.294;2023-02-15T16:21:19;11.30;;;4.90;;
63900;SDS011;50538;53.482;10.294;2023-02-15T16:31:23;9.80;;;3.85;;
63900;SDS011;50538;53.482;10.294;2023-02-15T16:41:27;8.88;;;3.92;;
63900;SDS011;50538;53.482;10.294;2023-02-15T16:51:29;9.30;;;4.03;;
63900;SDS011;50538;53.482;10.294;2023-02-15T17:01:35;9.30;;;3.92;;
63900;SDS011;50538;53.482;10.294;2023-02-15T17:11:39;12.43;;;5.57;;
63900;SDS011;50538;53.482;10.294;2023-02-15T17:21:43;6.80;;;3.40;;
63900;SDS011;50538;53.482;10.294;2023-02-15T17:31:49;8.43;;;3.55;;
63900;SDS011;50538;53.482;10.294;2023-02-15T17:41:54;8.93;;;3.60;;
63900;SDS011;50538;53.482;10.294;2023-02-15T17:51:54;7.65;;;3.03;;
63900;SDS011;50538;53.482;10.294;2023-02-15T18:01:54;8.98;;;2.83;;
63900;SDS011;50538;53.482;10.294;2023-02-15T18:12:24;7.32;;;3.20;;
63900;SDS011;50538;53.482;10.294;2023-02-15T18:22:26;10.63;;;4.18;;
63900;SDS011;50538;53.482;10.294;2023-02-15T18:32:31;8.35;;;3.42;;
63900;SDS011;50538;53.482;10.294;2023-02-15T18:42:33;8.57;;;3.53;;
63900;SDS011;50538;53.482;10.294;2023-02-15T18:52:35;7.57;;;2.97;;
63900;SDS011;50538;53.482;10.294;2023-02-15T19:02:37;6.05;;;3.38;;
63900;SDS011;50538;53.482;10.294;2023-02-15T19:12:37;7.35;;;3.33;;
63900;SDS011;50538;53.482;10.294;2023-02-15T19:22:38;8.23;;;2.50;;
63900;SDS011;50538;53.482;10.294;2023-02-15T19:32:38;8.95;;;3.97;;
63900;SDS011;50538;53.482;10.294;2023-02-15T19:42:38;7.13;;;2.40;;
63900;SDS011;50538;53.482;10.294;2023-02-15T19:52:39;9.43;;;4.32;;
63900;SDS011;50538;53.482;10.294;2023-02-15T20:02:40;9.93;;;3.38;;
63900;SDS011;50538;53.482;10.294;2023-02-15T20:12:40;9.77;;;3.42;;
63900;SDS011;50538;53.482;10.294;2023-02-15T20:22:41;9.40;;;3.53;;
63900;SDS011;50538;53.482;10.294;2023-02-15T20:32:45;7.65;;;3.38;;
63900;SDS011;50538;53.482;10.294;2023-02-15T20:42:46;6.50;;;3.15;;
63900;SDS011;50538;53.482;10.294;2023-02-15T20:52:47;12.32;;;4.43;;
63900;SDS011;50538;53.482;10.294;2023-02-15T21:02:49;10.52;;;4.30;;
63900;SDS011;50538;53.482;10.294;2023-02-15T21:12:51;7.60;;;3.75;;
63900;SDS011;50538;53.482;10.294;2023-02-15T21:22:53;8.95;;;4.03;;
63900;SDS011;50538;53.482;10.294;2023-02-15T21:32:55;7.72;;;2.95;;
63900;SDS011;50538;53.482;10.294;2023-02-15T21:42:55;8.75;;;3.65;;
63900;SDS011;50538;53.482;10.294;2023-02-15T21:53:19;8.52;;;3.47;;
63900;SDS011;50538;53.482;10.294;2023-02-15T22:03:21;10.65;;;4.57;;
63900;SDS011;50538;53.482;10.294;2023-02-15T22:13:30;12.30;;;3.60;;
63900;SDS011;50538;53.482;10.294;2023-02-15T22:23:32;8.68;;;4.00;;
63900;SDS011;50538;53.482;10.294;2023-02-15T22:33:33;8.65;;;2.92;;
63900;SDS011;50538;53.482;10.294;2023-02-15T22:53:34;7.60;;;3.22;;
63900;SDS011;50538;53.482;10.294;2023-02-15T23:03:34;8.23;;;2.88;;
63900;SDS011;50538;53.482;10.294;2023-02-15T23:13:35;7.78;;;3.60;;
63900;SDS011;50538;53.482;10.294;2023-02-15T23:23:37;5.35;;;2.15;;
63900;SDS011;50538;53.482;10.294;2023-02-15T23:33:39;6.50;;;3.10;;
63900;SDS011;50538;53.482;10.294;2023-02-15T23:43:40;5.68;;;1.55;;
63900;SDS011;50538;53.482;10.294;2023-02-15T23:53:42;7.43;;;2.60;;
